KAND/AND METAR and TAF weather

Enter ICAO airport designator
Station Type Date Time Source
KAND METAR 2019/10/18 05:56 UTC NOAA

KAND 180556Z AUTO 00000KT 10SM CLR 08/06 A2997 RMK AO2 SLP144 T00780056 10133 20072 53012


Station Type Date Time Source
KAND Decoded METAR 2019/10/18 05:56 UTC NOAA

ANDERSON COUNTY AIRPORT, SC, United States (KAND) 34-30N 82-43W 239M
Oct 18, 2019 - 01:56 AM EDT / 2019.10.18 0556 UTC
Wind: Calm:0
Visibility: 10 mile(s):0
Sky conditions: clear
Temperature: 46.0 F (7.8 C)
Dew Point: 42.1 F (5.6 C)
Relative Humidity: 85%
Pressure (altimeter): 29.97 in. Hg (1014 hPa)
Pressure tendency: 0.04 inches (1.2 hPa) higher than three hours ago
ob: KAND 180556Z AUTO 00000KT 10SM CLR 08/06 A2997 RMK AO2 SLP144 T00780056 10133 20072 53012
cycle: 6

Station Type Date Time Source
KAND TAF 2019/10/18 06:34 UTC NOAA

TAF KAND 180532Z 1806/1906 04004KT P6SM SKC
FM181700 13004KT P6SM FEW250
FM190200 08004KT P6SM SCT250

Example: see airport list